Wetterdaten: Woche 22.05.06 - 28.05.06 (KW21)
Datum Zeit Temperatur Luftfeuchte Luftdruck Windrichtung Wind
22.05.2006 00:00 9,2 C 87 % 1009 hPa N 0,0 km/h (0 Bft)
22.05.2006 01:00 8,4 C 89 % 1009 hPa N 0,0 km/h (0 Bft)
22.05.2006 02:00 7,9 C 92 % 1008 hPa N 0,0 km/h (0 Bft)
22.05.2006 03:00 7,8 C 94 % 1008 hPa N 0,0 km/h (0 Bft)
22.05.2006 04:00 7,4 C 96 % 1008 hPa N 0,0 km/h (0 Bft)
22.05.2006 05:00 7,0 C 96 % 1007 hPa N 0,0 km/h (0 Bft)
22.05.2006 06:00 7,6 C 97 % 1007 hPa N 0,0 km/h (0 Bft)
22.05.2006 07:00 9,6 C 99 % 1007 hPa N 0,3 km/h (0 Bft)
22.05.2006 08:00 13,4 C 79 % 1006 hPa S-SW 7,5 km/h (2 Bft)
22.05.2006 09:00 17,8 C 54 % 1006 hPa S-SO 10,6 km/h (2 Bft)
22.05.2006 10:00 21,5 C 40 % 1005 hPa S-SW 15,8 km/h (3 Bft)
22.05.2006 11:00 23,0 C 35 % 1005 hPa S 21,1 km/h (4 Bft)
22.05.2006 12:00 23,9 C 34 % 1005 hPa S-SW 19,0 km/h (3 Bft)
22.05.2006 13:00 24,2 C 35 % 1005 hPa S-SW 12,3 km/h (3 Bft)
22.05.2006 14:00 24,6 C 37 % 1005 hPa SW 11,8 km/h (2 Bft)
22.05.2006 15:00 24,1 C 34 % 1005 hPa W 16,9 km/h (3 Bft)
22.05.2006 16:00 23,4 C 33 % 1006 hPa W 16,3 km/h (3 Bft)
22.05.2006 17:00 21,6 C 35 % 1006 hPa W 17,9 km/h (3 Bft)
22.05.2006 18:00 18,2 C 57 % 1008 hPa N 21,2 km/h (4 Bft)
22.05.2006 19:00 15,7 C 64 % 1009 hPa NW 14,4 km/h (3 Bft)
22.05.2006 20:00 14,8 C 64 % 1010 hPa W 12,1 km/h (2 Bft)
22.05.2006 21:00 13,9 C 64 % 1012 hPa W-SW 16,6 km/h (3 Bft)
22.05.2006 22:00 11,5 C 85 % 1013 hPa W-SW 12,6 km/h (3 Bft)
22.05.2006 23:00 10,8 C 92 % 1014 hPa S-SW 13,4 km/h (3 Bft)
23.05.2006 00:00 10,5 C 94 % 1015 hPa S-SW 15,7 km/h (3 Bft)
23.05.2006 01:00 10,2 C 95 % 1015 hPa S-SW 17,9 km/h (3 Bft)
23.05.2006 02:00 10,0 C 97 % 1015 hPa S-SW 16,9 km/h (3 Bft)
23.05.2006 03:00 9,8 C 96 % 1015 hPa S-SW 17,8 km/h (3 Bft)
23.05.2006 04:00 9,8 C 92 % 1016 hPa S-SW 16,8 km/h (3 Bft)
23.05.2006 05:00 9,7 C 90 % 1016 hPa S-SW 14,7 km/h (3 Bft)
23.05.2006 06:00 9,8 C 85 % 1016 hPa S-SW 14,6 km/h (3 Bft)
23.05.2006 07:00 9,9 C 84 % 1017 hPa S-SW 16,3 km/h (3 Bft)
23.05.2006 08:00 10,1 C 81 % 1018 hPa W-SW 12,9 km/h (3 Bft)
23.05.2006 09:00 10,6 C 77 % 1018 hPa W-SW 12,3 km/h (3 Bft)
23.05.2006 10:00 11,6 C 69 % 1018 hPa S-SW 14,7 km/h (3 Bft)
23.05.2006 11:00 13,0 C 59 % 1018 hPa S-SW 16,3 km/h (3 Bft)
23.05.2006 12:00 14,8 C 50 % 1018 hPa SW 17,3 km/h (3 Bft)
23.05.2006 13:00 14,8 C 49 % 1018 hPa SW 19,4 km/h (3 Bft)
23.05.2006 14:00 14,9 C 46 % 1019 hPa SW 20,7 km/h (4 Bft)
23.05.2006 15:00 15,1 C 44 % 1019 hPa SW 19,6 km/h (3 Bft)
23.05.2006 16:00 15,1 C 45 % 1019 hPa SW 17,9 km/h (3 Bft)
23.05.2006 17:00 14,9 C 51 % 1019 hPa S-SW 17,4 km/h (3 Bft)
23.05.2006 18:00 14,4 C 55 % 1019 hPa S-SW 18,0 km/h (3 Bft)
23.05.2006 19:00 13,8 C 58 % 1019 hPa S-SW 18,3 km/h (3 Bft)
23.05.2006 20:00 12,6 C 66 % 1020 hPa S-SW 15,5 km/h (3 Bft)
23.05.2006 21:00 11,6 C 68 % 1020 hPa S-SW 12,1 km/h (2 Bft)
23.05.2006 22:00 11,1 C 72 % 1021 hPa S-SW 11,4 km/h (2 Bft)
23.05.2006 23:00 10,6 C 76 % 1021 hPa S-SW 12,5 km/h (3 Bft)
24.05.2006 00:00 10,4 C 80 % 1022 hPa S 4,6 km/h (1 Bft)
24.05.2006 01:00 10,0 C 83 % 1022 hPa N 0,0 km/h (0 Bft)
24.05.2006 02:00 9,4 C 83 % 1022 hPa W-NW 1,7 km/h (1 Bft)
24.05.2006 03:00 9,1 C 76 % 1022 hPa N 0,0 km/h (0 Bft)
24.05.2006 04:00 8,7 C 76 % 1022 hPa N 0,0 km/h (0 Bft)
24.05.2006 05:00 8,4 C 78 % 1022 hPa N 0,0 km/h (0 Bft)
24.05.2006 06:00 8,3 C 81 % 1023 hPa N 0,0 km/h (0 Bft)
24.05.2006 07:00 9,1 C 80 % 1023 hPa N 3,3 km/h (1 Bft)
24.05.2006 08:00 10,9 C 61 % 1023 hPa N 6,2 km/h (2 Bft)
24.05.2006 09:00 12,7 C 49 % 1023 hPa NO 4,4 km/h (1 Bft)
24.05.2006 10:00 14,1 C 46 % 1022 hPa W 7,1 km/h (2 Bft)
24.05.2006 11:00 14,1 C 45 % 1022 hPa W 4,5 km/h (1 Bft)
24.05.2006 12:00 14,2 C 43 % 1022 hPa NW 3,4 km/h (1 Bft)
24.05.2006 13:00 15,5 C 41 % 1022 hPa S 8,6 km/h (2 Bft)
24.05.2006 14:00 15,9 C 40 % 1021 hPa W-SW 8,9 km/h (2 Bft)
24.05.2006 15:00 16,3 C 38 % 1021 hPa W 10,0 km/h (2 Bft)
24.05.2006 16:00 16,8 C 37 % 1021 hPa W 9,9 km/h (2 Bft)
24.05.2006 17:00 16,3 C 36 % 1021 hPa W 16,5 km/h (3 Bft)
24.05.2006 18:00 16,4 C 36 % 1021 hPa W-SW 14,7 km/h (3 Bft)
24.05.2006 19:00 15,4 C 38 % 1021 hPa W-SW 11,9 km/h (2 Bft)
24.05.2006 20:00 13,8 C 40 % 1021 hPa W-SW 6,7 km/h (2 Bft)
24.05.2006 21:00 11,6 C 49 % 1022 hPa W-SW 4,2 km/h (1 Bft)
24.05.2006 22:00 10,3 C 49 % 1022 hPa W-SW 9,3 km/h (2 Bft)
24.05.2006 23:00 10,2 C 48 % 1022 hPa W-SW 7,9 km/h (2 Bft)
25.05.2006 00:00 9,0 C 54 % 1023 hPa S-SW 4,1 km/h (1 Bft)
25.05.2006 01:00 8,3 C 57 % 1023 hPa S-SW 8,3 km/h (2 Bft)
25.05.2006 02:00 8,4 C 60 % 1022 hPa S 0,1 km/h (0 Bft)
25.05.2006 03:00 7,8 C 66 % 1022 hPa S-SO 0,5 km/h (0 Bft)
25.05.2006 04:00 7,0 C 71 % 1022 hPa S-SW 1,5 km/h (1 Bft)
25.05.2006 05:00 8,0 C 69 % 1022 hPa S-SW 10,2 km/h (2 Bft)
25.05.2006 06:00 7,9 C 71 % 1022 hPa S-SW 9,2 km/h (2 Bft)
25.05.2006 07:00 8,8 C 68 % 1022 hPa S-SW 8,1 km/h (2 Bft)
25.05.2006 08:00 11,2 C 54 % 1022 hPa S-SW 15,0 km/h (3 Bft)
25.05.2006 09:00 11,9 C 49 % 1022 hPa SW 21,2 km/h (4 Bft)
25.05.2006 10:00 13,1 C 49 % 1022 hPa W-SW 23,7 km/h (4 Bft)
25.05.2006 11:00 13,5 C 46 % 1022 hPa SW 22,9 km/h (4 Bft)
25.05.2006 12:00 13,8 C 45 % 1022 hPa W-SW 21,1 km/h (4 Bft)
25.05.2006 13:00 14,2 C 44 % 1021 hPa S-SW 22,6 km/h (4 Bft)
25.05.2006 14:00 15,3 C 43 % 1021 hPa W-SW 21,6 km/h (4 Bft)
25.05.2006 15:00 14,9 C 41 % 1021 hPa W-SW 22,1 km/h (4 Bft)
25.05.2006 16:00 14,1 C 45 % 1021 hPa W-SW 16,9 km/h (3 Bft)
25.05.2006 17:00 14,0 C 49 % 1021 hPa W-SW 15,9 km/h (3 Bft)
25.05.2006 18:00 14,0 C 51 % 1021 hPa SW 16,8 km/h (3 Bft)
25.05.2006 19:00 12,7 C 63 % 1022 hPa W-SW 15,7 km/h (3 Bft)
25.05.2006 20:00 12,7 C 66 % 1022 hPa W-SW 15,0 km/h (3 Bft)
25.05.2006 21:00 12,3 C 69 % 1022 hPa W-SW 15,8 km/h (3 Bft)
25.05.2006 22:00 11,8 C 73 % 1023 hPa S-SW 12,7 km/h (3 Bft)
25.05.2006 23:00 11,2 C 76 % 1023 hPa S-SW 13,6 km/h (3 Bft)
26.05.2006 00:00 10,3 C 80 % 1023 hPa S-SW 13,5 km/h (3 Bft)
26.05.2006 01:00 10,0 C 82 % 1023 hPa S-SW 14,1 km/h (3 Bft)
26.05.2006 02:00 10,8 C 79 % 1023 hPa SW 17,9 km/h (3 Bft)
26.05.2006 03:00 11,6 C 76 % 1022 hPa W-SW 14,4 km/h (3 Bft)
26.05.2006 04:00 11,4 C 81 % 1022 hPa W-SW 11,0 km/h (2 Bft)
26.05.2006 05:00 11,1 C 87 % 1023 hPa W-SW 11,5 km/h (2 Bft)
26.05.2006 06:00 11,1 C 92 % 1023 hPa S-SW 14,0 km/h (3 Bft)
26.05.2006 07:00 10,9 C 97 % 1023 hPa S-SW 12,9 km/h (3 Bft)
26.05.2006 08:00 11,9 C 96 % 1023 hPa S-SW 14,8 km/h (3 Bft)
26.05.2006 09:00 12,7 C 90 % 1024 hPa SW 14,8 km/h (3 Bft)
26.05.2006 10:00 13,6 C 84 % 1024 hPa W-SW 14,7 km/h (3 Bft)
26.05.2006 11:00 14,8 C 74 % 1024 hPa S-SW 15,7 km/h (3 Bft)
26.05.2006 12:00 16,5 C 65 % 1023 hPa SW 18,8 km/h (3 Bft)
26.05.2006 13:00 17,8 C 56 % 1023 hPa SW 20,5 km/h (4 Bft)
26.05.2006 14:00 18,0 C 53 % 1022 hPa W-SW 20,0 km/h (4 Bft)
26.05.2006 15:00 17,9 C 53 % 1022 hPa W-SW 17,2 km/h (3 Bft)
26.05.2006 16:00 18,2 C 51 % 1022 hPa W-SW 20,7 km/h (4 Bft)
26.05.2006 17:00 17,9 C 53 % 1022 hPa W-SW 19,5 km/h (3 Bft)
26.05.2006 18:00 17,9 C 54 % 1021 hPa W-SW 19,0 km/h (3 Bft)
26.05.2006 19:00 17,4 C 55 % 1021 hPa W-SW 21,7 km/h (4 Bft)
26.05.2006 20:00 16,8 C 60 % 1021 hPa W-SW 22,6 km/h (4 Bft)
26.05.2006 21:00 16,5 C 62 % 1021 hPa W 24,3 km/h (4 Bft)
26.05.2006 22:00 16,3 C 65 % 1022 hPa W-SW 20,7 km/h (4 Bft)
26.05.2006 23:00 16,2 C 69 % 1022 hPa W-SW 21,0 km/h (4 Bft)
27.05.2006 00:00 15,9 C 73 % 1022 hPa W-SW 18,0 km/h (3 Bft)
27.05.2006 01:00 15,9 C 73 % 1022 hPa W-SW 18,1 km/h (3 Bft)
27.05.2006 02:00 15,9 C 74 % 1022 hPa W-SW 18,4 km/h (3 Bft)
27.05.2006 03:00 15,2 C 84 % 1022 hPa W-SW 15,4 km/h (3 Bft)
27.05.2006 04:00 14,5 C 94 % 1022 hPa W-SW 13,1 km/h (3 Bft)
27.05.2006 05:00 14,3 C 97 % 1022 hPa W-SW 10,4 km/h (2 Bft)
27.05.2006 06:00 14,4 C 97 % 1023 hPa W-SW 12,8 km/h (3 Bft)
27.05.2006 07:00 14,9 C 96 % 1024 hPa W-SW 8,7 km/h (2 Bft)
27.05.2006 08:00 15,2 C 94 % 1024 hPa W-SW 9,6 km/h (2 Bft)
27.05.2006 09:00 15,6 C 93 % 1024 hPa W 12,9 km/h (3 Bft)
27.05.2006 10:00 16,8 C 81 % 1024 hPa W 15,8 km/h (3 Bft)
27.05.2006 11:00 18,9 C 68 % 1024 hPa W 18,1 km/h (3 Bft)
27.05.2006 12:00 19,4 C 66 % 1024 hPa W 16,3 km/h (3 Bft)
27.05.2006 13:00 19,4 C 66 % 1024 hPa SW 18,9 km/h (3 Bft)
27.05.2006 14:00 19,3 C 68 % 1024 hPa SW 18,8 km/h (3 Bft)
27.05.2006 15:00 20,1 C 63 % 1023 hPa W-SW 22,4 km/h (4 Bft)
27.05.2006 16:00 19,2 C 68 % 1023 hPa W-SW 16,9 km/h (3 Bft)
27.05.2006 17:00 18,0 C 80 % 1023 hPa W 6,2 km/h (2 Bft)
27.05.2006 18:00 17,8 C 83 % 1022 hPa W 5,6 km/h (1 Bft)
27.05.2006 19:00 18,2 C 73 % 1022 hPa W-SW 9,7 km/h (2 Bft)
27.05.2006 20:00 17,9 C 69 % 1022 hPa W-SW 11,5 km/h (2 Bft)
27.05.2006 21:00 17,0 C 71 % 1022 hPa W-SW 11,8 km/h (2 Bft)
27.05.2006 22:00 16,4 C 74 % 1022 hPa W-SW 14,5 km/h (3 Bft)
27.05.2006 23:00 16,2 C 77 % 1021 hPa W-SW 16,7 km/h (3 Bft)
28.05.2006 00:00 15,8 C 81 % 1021 hPa W-SW 12,9 km/h (3 Bft)
28.05.2006 01:00 15,5 C 84 % 1021 hPa W-SW 13,2 km/h (3 Bft)
28.05.2006 02:00 15,4 C 84 % 1020 hPa W-SW 15,2 km/h (3 Bft)
28.05.2006 03:00 15,3 C 82 % 1019 hPa SW 18,4 km/h (3 Bft)
28.05.2006 04:00 14,8 C 83 % 1019 hPa S-SW 18,3 km/h (3 Bft)
28.05.2006 05:00 14,8 C 83 % 1019 hPa W-SW 21,5 km/h (4 Bft)
28.05.2006 06:00 15,4 C 78 % 1018 hPa S-SW 20,2 km/h (4 Bft)
28.05.2006 07:00 15,8 C 75 % 1018 hPa SW 25,0 km/h (4 Bft)
28.05.2006 08:00 15,9 C 76 % 1018 hPa W-SW 22,8 km/h (4 Bft)
28.05.2006 09:00 16,8 C 72 % 1018 hPa SW 19,9 km/h (4 Bft)
28.05.2006 10:00 16,7 C 75 % 1018 hPa W-SW 20,6 km/h (4 Bft)
28.05.2006 11:00 15,5 C 90 % 1018 hPa W-SW 15,5 km/h (3 Bft)
28.05.2006 12:00 14,1 C 95 % 1019 hPa W 12,5 km/h (3 Bft)
28.05.2006 13:00 14,3 C 95 % 1019 hPa W 13,9 km/h (3 Bft)
28.05.2006 14:00 14,9 C 86 % 1019 hPa W 16,7 km/h (3 Bft)
28.05.2006 15:00 15,4 C 80 % 1019 hPa W 18,0 km/h (3 Bft)
28.05.2006 16:00 15,8 C 75 % 1018 hPa W 13,1 km/h (3 Bft)
28.05.2006 17:00 16,3 C 67 % 1018 hPa W 13,0 km/h (3 Bft)
28.05.2006 18:00 16,0 C 63 % 1018 hPa W 11,0 km/h (2 Bft)
28.05.2006 19:00 15,2 C 64 % 1018 hPa W 10,6 km/h (2 Bft)
28.05.2006 20:00 14,4 C 67 % 1018 hPa W-SW 2,0 km/h (1 Bft)
28.05.2006 21:00 13,4 C 73 % 1019 hPa W 2,0 km/h (1 Bft)
28.05.2006 22:00 12,4 C 80 % 1019 hPa W 1,8 km/h (1 Bft)
28.05.2006 23:00 12,1 C 79 % 1018 hPa N 0,2 km/h (0 Bft)
Min-Datum _ 25.05.06 22.05.06 22.05.06 - 22.05.06
_ Min-Zeit 04:28 16:17 14:33 - 00:00
Minimum _ 6,8 C 31 % 1004 hPa - 0,0 km/h (0 Bft)
Max-Datum _ 22.05.06 22.05.06 26.05.06 - 26.05.06
_ Max-Zeit 14:56 07:28 09:03 - 21:33
Maximum _ 25,1 C 100 % 1024 hPa - 48,4 km/h
W (6 Bft)
Durchschnitt _ 14,0 C 68 % 1019 hPa W-SW 13,1 km/h (3 Bft)

Durchschnitt Minimum Temp.13,5 C
Durchschnitt Maximum Temp.14,4 C